sensor_id;sensor_type;location;lat;lon;timestamp;temperature;humidity
13482;DHT22;6813;60.352;15.746;2023-05-21T00:00:05;13.20;71.10
13482;DHT22;6813;60.352;15.746;2023-05-21T00:02:35;13.20;70.80
13482;DHT22;6813;60.352;15.746;2023-05-21T00:05:01;13.10;71.10
13482;DHT22;6813;60.352;15.746;2023-05-21T00:07:27;12.90;72.00
13482;DHT22;6813;60.352;15.746;2023-05-21T00:09:52;12.70;72.70
13482;DHT22;6813;60.352;15.746;2023-05-21T00:12:18;12.60;72.90
13482;DHT22;6813;60.352;15.746;2023-05-21T00:14:44;12.60;73.00
13482;DHT22;6813;60.352;15.746;2023-05-21T00:17:09;12.70;72.80
13482;DHT22;6813;60.352;15.746;2023-05-21T00:19:35;12.70;72.20
13482;DHT22;6813;60.352;15.746;2023-05-21T00:22:01;12.80;72.10
13482;DHT22;6813;60.352;15.746;2023-05-21T00:24:28;12.90;71.90
13482;DHT22;6813;60.352;15.746;2023-05-21T00:26:54;13.00;71.80
13482;DHT22;6813;60.352;15.746;2023-05-21T00:29:20;13.00;71.30
13482;DHT22;6813;60.352;15.746;2023-05-21T00:31:47;13.00;71.30
13482;DHT22;6813;60.352;15.746;2023-05-21T00:34:15;13.00;70.70
13482;DHT22;6813;60.352;15.746;2023-05-21T00:36:40;13.10;70.70
13482;DHT22;6813;60.352;15.746;2023-05-21T00:39:10;13.00;71.50
13482;DHT22;6813;60.352;15.746;2023-05-21T00:41:36;13.00;71.40
13482;DHT22;6813;60.352;15.746;2023-05-21T00:44:08;12.80;72.00
13482;DHT22;6813;60.352;15.746;2023-05-21T00:46:34;12.60;72.60
13482;DHT22;6813;60.352;15.746;2023-05-21T00:49:00;12.30;73.60
13482;DHT22;6813;60.352;15.746;2023-05-21T00:51:26;12.10;74.70
13482;DHT22;6813;60.352;15.746;2023-05-21T00:53:55;11.50;76.10
13482;DHT22;6813;60.352;15.746;2023-05-21T00:56:23;11.00;78.40
13482;DHT22;6813;60.352;15.746;2023-05-21T00:58:53;10.60;80.20
13482;DHT22;6813;60.352;15.746;2023-05-21T01:01:20;10.40;81.20
13482;DHT22;6813;60.352;15.746;2023-05-21T01:03:46;10.30;82.20
13482;DHT22;6813;60.352;15.746;2023-05-21T01:06:12;10.20;82.80
13482;DHT22;6813;60.352;15.746;2023-05-21T01:08:39;10.10;83.60
13482;DHT22;6813;60.352;15.746;2023-05-21T01:11:07;10.20;83.40
13482;DHT22;6813;60.352;15.746;2023-05-21T01:13:38;10.20;83.20
13482;DHT22;6813;60.352;15.746;2023-05-21T01:16:07;10.20;82.90
13482;DHT22;6813;60.352;15.746;2023-05-21T01:18:34;10.10;83.10
13482;DHT22;6813;60.352;15.746;2023-05-21T01:21:02;10.10;83.90
13482;DHT22;6813;60.352;15.746;2023-05-21T01:23:28;10.10;83.90
13482;DHT22;6813;60.352;15.746;2023-05-21T01:25:53;9.90;85.00
13482;DHT22;6813;60.352;15.746;2023-05-21T01:28:19;9.90;86.00
13482;DHT22;6813;60.352;15.746;2023-05-21T01:30:45;9.80;86.30
13482;DHT22;6813;60.352;15.746;2023-05-21T01:33:18;9.80;86.80
13482;DHT22;6813;60.352;15.746;2023-05-21T01:35:56;9.80;87.10
13482;DHT22;6813;60.352;15.746;2023-05-21T01:38:41;9.90;86.60
13482;DHT22;6813;60.352;15.746;2023-05-21T01:41:12;9.90;87.10
13482;DHT22;6813;60.352;15.746;2023-05-21T01:43:40;9.90;87.80
13482;DHT22;6813;60.352;15.746;2023-05-21T01:46:09;9.90;87.50
13482;DHT22;6813;60.352;15.746;2023-05-21T01:48:35;10.20;84.60
13482;DHT22;6813;60.352;15.746;2023-05-21T01:51:03;10.40;84.70
13482;DHT22;6813;60.352;15.746;2023-05-21T01:53:29;10.60;83.80
13482;DHT22;6813;60.352;15.746;2023-05-21T01:55:55;10.60;84.40
13482;DHT22;6813;60.352;15.746;2023-05-21T01:58:21;10.50;84.60
13482;DHT22;6813;60.352;15.746;2023-05-21T02:00:47;10.40;84.90
13482;DHT22;6813;60.352;15.746;2023-05-21T02:03:16;10.20;86.00
13482;DHT22;6813;60.352;15.746;2023-05-21T02:05:43;10.00;87.00
13482;DHT22;6813;60.352;15.746;2023-05-21T02:08:08;9.80;89.20
13482;DHT22;6813;60.352;15.746;2023-05-21T02:10:35;9.60;89.80
13482;DHT22;6813;60.352;15.746;2023-05-21T02:13:01;9.50;90.10
13482;DHT22;6813;60.352;15.746;2023-05-21T02:15:27;9.50;90.40
13482;DHT22;6813;60.352;15.746;2023-05-21T02:17:52;9.50;90.60
13482;DHT22;6813;60.352;15.746;2023-05-21T02:20:18;9.70;90.10
13482;DHT22;6813;60.352;15.746;2023-05-21T02:22:46;9.90;89.70
13482;DHT22;6813;60.352;15.746;2023-05-21T02:25:13;10.00;88.40
13482;DHT22;6813;60.352;15.746;2023-05-21T02:27:40;9.80;90.30
13482;DHT22;6813;60.352;15.746;2023-05-21T02:30:09;9.70;90.50
13482;DHT22;6813;60.352;15.746;2023-05-21T02:32:35;9.50;91.10
13482;DHT22;6813;60.352;15.746;2023-05-21T02:35:02;9.50;91.50
13482;DHT22;6813;60.352;15.746;2023-05-21T02:37:29;9.40;91.70
13482;DHT22;6813;60.352;15.746;2023-05-21T02:39:58;9.40;92.00
13482;DHT22;6813;60.352;15.746;2023-05-21T02:42:24;9.50;91.60
13482;DHT22;6813;60.352;15.746;2023-05-21T02:44:51;9.70;91.00
13482;DHT22;6813;60.352;15.746;2023-05-21T02:47:19;10.00;90.50
13482;DHT22;6813;60.352;15.746;2023-05-21T02:49:45;10.30;87.50
13482;DHT22;6813;60.352;15.746;2023-05-21T02:52:11;10.50;85.70
13482;DHT22;6813;60.352;15.746;2023-05-21T02:54:38;10.70;89.80
13482;DHT22;6813;60.352;15.746;2023-05-21T02:57:04;10.80;90.00
13482;DHT22;6813;60.352;15.746;2023-05-21T02:59:30;10.70;92.70
13482;DHT22;6813;60.352;15.746;2023-05-21T03:01:56;10.60;92.80
13482;DHT22;6813;60.352;15.746;2023-05-21T03:04:21;10.60;93.50
13482;DHT22;6813;60.352;15.746;2023-05-21T03:06:48;10.60;92.90
13482;DHT22;6813;60.352;15.746;2023-05-21T03:09:16;10.80;91.20
13482;DHT22;6813;60.352;15.746;2023-05-21T03:11:42;11.00;90.80
13482;DHT22;6813;60.352;15.746;2023-05-21T03:14:08;11.10;90.70
13482;DHT22;6813;60.352;15.746;2023-05-21T03:16:34;11.20;90.50
13482;DHT22;6813;60.352;15.746;2023-05-21T03:19:00;11.20;91.10
13482;DHT22;6813;60.352;15.746;2023-05-21T03:21:26;10.90;91.80
13482;DHT22;6813;60.352;15.746;2023-05-21T03:23:55;10.70;92.50
13482;DHT22;6813;60.352;15.746;2023-05-21T03:26:26;10.70;92.60
13482;DHT22;6813;60.352;15.746;2023-05-21T03:28:52;10.60;92.70
13482;DHT22;6813;60.352;15.746;2023-05-21T03:31:18;10.80;92.40
13482;DHT22;6813;60.352;15.746;2023-05-21T03:33:45;11.00;92.00
13482;DHT22;6813;60.352;15.746;2023-05-21T03:36:10;11.00;91.70
13482;DHT22;6813;60.352;15.746;2023-05-21T03:38:36;11.00;91.50
13482;DHT22;6813;60.352;15.746;2023-05-21T03:41:02;11.00;91.30
13482;DHT22;6813;60.352;15.746;2023-05-21T03:43:27;11.10;91.10
13482;DHT22;6813;60.352;15.746;2023-05-21T03:45:54;11.30;90.90
13482;DHT22;6813;60.352;15.746;2023-05-21T03:48:20;11.40;90.60
13482;DHT22;6813;60.352;15.746;2023-05-21T03:50:46;11.60;90.10
13482;DHT22;6813;60.352;15.746;2023-05-21T03:53:11;11.70;89.20
13482;DHT22;6813;60.352;15.746;2023-05-21T03:55:38;11.70;88.70
13482;DHT22;6813;60.352;15.746;2023-05-21T03:58:04;11.70;88.70
13482;DHT22;6813;60.352;15.746;2023-05-21T04:00:29;11.60;88.70
13482;DHT22;6813;60.352;15.746;2023-05-21T04:02:57;11.60;89.80
13482;DHT22;6813;60.352;15.746;2023-05-21T04:05:23;11.60;89.60
13482;DHT22;6813;60.352;15.746;2023-05-21T04:07:49;11.60;90.20
13482;DHT22;6813;60.352;15.746;2023-05-21T04:10:15;11.70;90.10
13482;DHT22;6813;60.352;15.746;2023-05-21T04:12:40;12.00;90.00
13482;DHT22;6813;60.352;15.746;2023-05-21T04:15:06;12.30;89.20
13482;DHT22;6813;60.352;15.746;2023-05-21T04:17:32;12.50;89.20
13482;DHT22;6813;60.352;15.746;2023-05-21T04:19:59;12.90;88.00
13482;DHT22;6813;60.352;15.746;2023-05-21T04:22:25;13.20;88.50
13482;DHT22;6813;60.352;15.746;2023-05-21T04:24:54;13.60;87.20
13482;DHT22;6813;60.352;15.746;2023-05-21T04:27:24;13.90;85.90
13482;DHT22;6813;60.352;15.746;2023-05-21T04:29:49;14.30;84.80
13482;DHT22;6813;60.352;15.746;2023-05-21T04:32:15;14.70;83.50
13482;DHT22;6813;60.352;15.746;2023-05-21T04:34:43;15.10;82.50
13482;DHT22;6813;60.352;15.746;2023-05-21T04:37:08;15.30;81.10
13482;DHT22;6813;60.352;15.746;2023-05-21T04:39:34;15.40;82.10
13482;DHT22;6813;60.352;15.746;2023-05-21T04:42:01;15.40;78.90
13482;DHT22;6813;60.352;15.746;2023-05-21T04:44:28;15.50;78.90
13482;DHT22;6813;60.352;15.746;2023-05-21T04:46:54;15.60;82.20
13482;DHT22;6813;60.352;15.746;2023-05-21T04:49:21;15.80;80.80
13482;DHT22;6813;60.352;15.746;2023-05-21T04:51:47;16.10;78.80
13482;DHT22;6813;60.352;15.746;2023-05-21T04:54:16;16.20;81.60
13482;DHT22;6813;60.352;15.746;2023-05-21T04:56:42;16.50;79.40
13482;DHT22;6813;60.352;15.746;2023-05-21T04:59:08;16.70;77.90
13482;DHT22;6813;60.352;15.746;2023-05-21T05:01:33;16.80;77.00
13482;DHT22;6813;60.352;15.746;2023-05-21T05:03:59;17.00;77.50
13482;DHT22;6813;60.352;15.746;2023-05-21T05:06:25;17.20;78.80
13482;DHT22;6813;60.352;15.746;2023-05-21T05:08:51;17.40;80.20
13482;DHT22;6813;60.352;15.746;2023-05-21T05:11:17;17.60;77.30
13482;DHT22;6813;60.352;15.746;2023-05-21T05:13:43;17.70;74.80
13482;DHT22;6813;60.352;15.746;2023-05-21T05:16:09;17.70;73.40
13482;DHT22;6813;60.352;15.746;2023-05-21T05:18:34;17.80;75.90
13482;DHT22;6813;60.352;15.746;2023-05-21T05:21:01;18.20;77.80
13482;DHT22;6813;60.352;15.746;2023-05-21T05:23:26;18.60;76.80
13482;DHT22;6813;60.352;15.746;2023-05-21T05:25:52;19.10;75.80
13482;DHT22;6813;60.352;15.746;2023-05-21T05:28:18;19.40;69.70
13482;DHT22;6813;60.352;15.746;2023-05-21T05:30:44;19.70;69.00
13482;DHT22;6813;60.352;15.746;2023-05-21T05:33:09;19.80;69.50
13482;DHT22;6813;60.352;15.746;2023-05-21T05:35:36;19.90;69.20
13482;DHT22;6813;60.352;15.746;2023-05-21T05:38:02;20.30;69.40
13482;DHT22;6813;60.352;15.746;2023-05-21T05:40:28;20.40;70.60
13482;DHT22;6813;60.352;15.746;2023-05-21T05:42:53;20.50;64.90
13482;DHT22;6813;60.352;15.746;2023-05-21T05:45:19;20.60;65.30
13482;DHT22;6813;60.352;15.746;2023-05-21T05:47:45;20.70;69.00
13482;DHT22;6813;60.352;15.746;2023-05-21T05:50:11;20.60;65.30
13482;DHT22;6813;60.352;15.746;2023-05-21T05:52:36;20.80;67.50
13482;DHT22;6813;60.352;15.746;2023-05-21T05:55:02;21.30;70.40
13482;DHT22;6813;60.352;15.746;2023-05-21T05:57:28;21.60;66.70
13482;DHT22;6813;60.352;15.746;2023-05-21T05:59:54;21.30;64.20
13482;DHT22;6813;60.352;15.746;2023-05-21T06:02:20;21.20;65.30
13482;DHT22;6813;60.352;15.746;2023-05-21T06:04:46;21.60;63.00
13482;DHT22;6813;60.352;15.746;2023-05-21T06:07:12;21.90;65.10
13482;DHT22;6813;60.352;15.746;2023-05-21T06:09:37;22.10;63.30
13482;DHT22;6813;60.352;15.746;2023-05-21T06:12:05;22.30;62.70
13482;DHT22;6813;60.352;15.746;2023-05-21T06:14:31;22.70;63.80
13482;DHT22;6813;60.352;15.746;2023-05-21T06:16:57;22.50;62.50
13482;DHT22;6813;60.352;15.746;2023-05-21T06:19:23;22.60;63.10
13482;DHT22;6813;60.352;15.746;2023-05-21T06:21:48;22.60;63.00
13482;DHT22;6813;60.352;15.746;2023-05-21T06:24:15;22.90;62.50
13482;DHT22;6813;60.352;15.746;2023-05-21T06:26:41;22.80;61.50
13482;DHT22;6813;60.352;15.746;2023-05-21T06:29:07;22.70;62.70
13482;DHT22;6813;60.352;15.746;2023-05-21T06:31:33;22.70;61.50
13482;DHT22;6813;60.352;15.746;2023-05-21T06:33:59;23.00;64.30
13482;DHT22;6813;60.352;15.746;2023-05-21T06:36:25;23.00;60.60
13482;DHT22;6813;60.352;15.746;2023-05-21T06:38:57;22.90;61.50
13482;DHT22;6813;60.352;15.746;2023-05-21T06:41:23;23.10;63.00
13482;DHT22;6813;60.352;15.746;2023-05-21T06:43:49;22.90;60.00
13482;DHT22;6813;60.352;15.746;2023-05-21T06:46:14;22.90;61.90
13482;DHT22;6813;60.352;15.746;2023-05-21T06:48:41;23.40;62.60
13482;DHT22;6813;60.352;15.746;2023-05-21T06:51:06;24.00;62.00
13482;DHT22;6813;60.352;15.746;2023-05-21T06:53:32;23.90;58.30
13482;DHT22;6813;60.352;15.746;2023-05-21T06:55:58;24.10;57.20
13482;DHT22;6813;60.352;15.746;2023-05-21T06:58:23;24.10;59.10
13482;DHT22;6813;60.352;15.746;2023-05-21T07:00:49;24.00;57.50
13482;DHT22;6813;60.352;15.746;2023-05-21T07:03:15;23.90;58.90
13482;DHT22;6813;60.352;15.746;2023-05-21T07:05:41;24.40;59.70
13482;DHT22;6813;60.352;15.746;2023-05-21T07:08:07;24.80;59.80
13482;DHT22;6813;60.352;15.746;2023-05-21T07:10:32;25.20;59.70
13482;DHT22;6813;60.352;15.746;2023-05-21T07:12:58;25.40;58.30
13482;DHT22;6813;60.352;15.746;2023-05-21T07:15:24;25.50;56.20
13482;DHT22;6813;60.352;15.746;2023-05-21T07:17:49;25.70;56.30
13482;DHT22;6813;60.352;15.746;2023-05-21T07:20:15;25.70;55.20
13482;DHT22;6813;60.352;15.746;2023-05-21T07:22:42;25.60;56.60
13482;DHT22;6813;60.352;15.746;2023-05-21T07:25:08;25.80;56.70
13482;DHT22;6813;60.352;15.746;2023-05-21T07:27:34;25.90;56.80
13482;DHT22;6813;60.352;15.746;2023-05-21T07:30:00;26.10;56.60
13482;DHT22;6813;60.352;15.746;2023-05-21T07:32:26;26.20;55.60
13482;DHT22;6813;60.352;15.746;2023-05-21T07:34:53;26.20;57.10
13482;DHT22;6813;60.352;15.746;2023-05-21T07:37:19;26.30;56.10
13482;DHT22;6813;60.352;15.746;2023-05-21T07:39:45;26.40;53.90
13482;DHT22;6813;60.352;15.746;2023-05-21T07:42:11;26.20;51.50
13482;DHT22;6813;60.352;15.746;2023-05-21T07:44:37;25.30;51.90
13482;DHT22;6813;60.352;15.746;2023-05-21T07:47:03;25.10;52.60
13482;DHT22;6813;60.352;15.746;2023-05-21T07:49:29;24.60;56.60
13482;DHT22;6813;60.352;15.746;2023-05-21T07:51:55;24.90;55.80
13482;DHT22;6813;60.352;15.746;2023-05-21T07:54:21;24.50;53.10
13482;DHT22;6813;60.352;15.746;2023-05-21T07:56:47;24.20;53.90
13482;DHT22;6813;60.352;15.746;2023-05-21T07:59:15;24.20;55.70
13482;DHT22;6813;60.352;15.746;2023-05-21T08:01:41;24.30;52.90
13482;DHT22;6813;60.352;15.746;2023-05-21T08:04:08;23.90;50.80
13482;DHT22;6813;60.352;15.746;2023-05-21T08:06:34;23.90;54.40
13482;DHT22;6813;60.352;15.746;2023-05-21T08:09:02;23.90;53.50
13482;DHT22;6813;60.352;15.746;2023-05-21T08:11:28;24.10;55.30
13482;DHT22;6813;60.352;15.746;2023-05-21T08:13:55;24.50;54.50
13482;DHT22;6813;60.352;15.746;2023-05-21T08:16:21;24.40;54.50
13482;DHT22;6813;60.352;15.746;2023-05-21T08:18:48;24.50;59.70
13482;DHT22;6813;60.352;15.746;2023-05-21T08:21:15;25.00;55.60
13482;DHT22;6813;60.352;15.746;2023-05-21T08:23:41;25.50;56.00
13482;DHT22;6813;60.352;15.746;2023-05-21T08:26:07;25.10;51.10
13482;DHT22;6813;60.352;15.746;2023-05-21T08:28:36;24.90;55.50
13482;DHT22;6813;60.352;15.746;2023-05-21T08:31:02;25.00;53.20
13482;DHT22;6813;60.352;15.746;2023-05-21T08:33:28;24.60;53.80
13482;DHT22;6813;60.352;15.746;2023-05-21T08:35:54;25.00;53.90
13482;DHT22;6813;60.352;15.746;2023-05-21T08:38:19;25.30;55.90
13482;DHT22;6813;60.352;15.746;2023-05-21T08:40:46;25.30;55.10
13482;DHT22;6813;60.352;15.746;2023-05-21T08:43:15;25.50;49.70
13482;DHT22;6813;60.352;15.746;2023-05-21T08:45:44;25.10;49.60
13482;DHT22;6813;60.352;15.746;2023-05-21T08:48:10;24.90;50.50
13482;DHT22;6813;60.352;15.746;2023-05-21T08:50:39;24.80;54.80
13482;DHT22;6813;60.352;15.746;2023-05-21T08:53:05;24.90;52.00
13482;DHT22;6813;60.352;15.746;2023-05-21T08:55:31;25.10;50.60
13482;DHT22;6813;60.352;15.746;2023-05-21T08:57:59;25.00;50.60
13482;DHT22;6813;60.352;15.746;2023-05-21T09:00:25;24.60;49.80
13482;DHT22;6813;60.352;15.746;2023-05-21T09:02:51;24.50;53.20
13482;DHT22;6813;60.352;15.746;2023-05-21T09:05:18;24.30;51.70
13482;DHT22;6813;60.352;15.746;2023-05-21T09:10:25;24.20;51.90
13482;DHT22;6813;60.352;15.746;2023-05-21T09:12:52;24.10;56.20
13482;DHT22;6813;60.352;15.746;2023-05-21T09:15:18;23.60;53.20
13482;DHT22;6813;60.352;15.746;2023-05-21T09:17:47;23.40;55.10
13482;DHT22;6813;60.352;15.746;2023-05-21T09:20:13;22.90;52.30
13482;DHT22;6813;60.352;15.746;2023-05-21T09:22:48;22.70;56.20
13482;DHT22;6813;60.352;15.746;2023-05-21T09:25:24;22.20;53.20
13482;DHT22;6813;60.352;15.746;2023-05-21T09:27:59;21.90;55.80
13482;DHT22;6813;60.352;15.746;2023-05-21T09:30:26;21.60;56.20
13482;DHT22;6813;60.352;15.746;2023-05-21T09:32:54;21.70;57.20
13482;DHT22;6813;60.352;15.746;2023-05-21T09:35:20;22.00;58.00
13482;DHT22;6813;60.352;15.746;2023-05-21T09:37:47;22.30;56.80
13482;DHT22;6813;60.352;15.746;2023-05-21T09:40:23;22.80;56.80
13482;DHT22;6813;60.352;15.746;2023-05-21T09:42:54;23.30;56.10
13482;DHT22;6813;60.352;15.746;2023-05-21T09:45:25;23.60;55.70
13482;DHT22;6813;60.352;15.746;2023-05-21T09:47:52;23.60;54.10
13482;DHT22;6813;60.352;15.746;2023-05-21T09:50:23;23.90;54.50
13482;DHT22;6813;60.352;15.746;2023-05-21T09:52:49;23.80;54.90
13482;DHT22;6813;60.352;15.746;2023-05-21T09:55:17;23.70;56.50
13482;DHT22;6813;60.352;15.746;2023-05-21T09:57:47;23.90;55.00
13482;DHT22;6813;60.352;15.746;2023-05-21T10:00:24;24.00;55.60
13482;DHT22;6813;60.352;15.746;2023-05-21T10:03:00;24.10;54.10
13482;DHT22;6813;60.352;15.746;2023-05-21T10:05:28;24.30;57.90
13482;DHT22;6813;60.352;15.746;2023-05-21T10:08:01;24.60;55.00
13482;DHT22;6813;60.352;15.746;2023-05-21T10:10:29;24.70;54.00
13482;DHT22;6813;60.352;15.746;2023-05-21T10:13:03;25.00;56.30
13482;DHT22;6813;60.352;15.746;2023-05-21T10:15:33;25.20;56.50
13482;DHT22;6813;60.352;15.746;2023-05-21T10:18:00;25.50;51.80
13482;DHT22;6813;60.352;15.746;2023-05-21T10:20:28;25.50;53.10
13482;DHT22;6813;60.352;15.746;2023-05-21T10:22:54;25.50;50.60
13482;DHT22;6813;60.352;15.746;2023-05-21T10:25:21;25.50;53.70
13482;DHT22;6813;60.352;15.746;2023-05-21T10:27:47;25.70;52.30
13482;DHT22;6813;60.352;15.746;2023-05-21T10:30:13;25.90;49.60
13482;DHT22;6813;60.352;15.746;2023-05-21T10:32:39;26.10;53.40
13482;DHT22;6813;60.352;15.746;2023-05-21T10:35:07;25.40;38.90
13482;DHT22;6813;60.352;15.746;2023-05-21T10:37:34;24.70;41.20
13482;DHT22;6813;60.352;15.746;2023-05-21T10:40:00;24.10;43.40
13482;DHT22;6813;60.352;15.746;2023-05-21T10:42:43;24.20;44.60
13482;DHT22;6813;60.352;15.746;2023-05-21T10:48:18;24.50;47.50
13482;DHT22;6813;60.352;15.746;2023-05-21T10:53:41;24.40;46.10
13482;DHT22;6813;60.352;15.746;2023-05-21T10:56:24;24.10;44.10
13482;DHT22;6813;60.352;15.746;2023-05-21T11:01:30;24.00;46.70
13482;DHT22;6813;60.352;15.746;2023-05-21T11:03:58;24.40;46.70
13482;DHT22;6813;60.352;15.746;2023-05-21T11:06:25;24.30;45.20
13482;DHT22;6813;60.352;15.746;2023-05-21T11:08:51;24.10;45.70
13482;DHT22;6813;60.352;15.746;2023-05-21T11:11:39;24.30;50.40
13482;DHT22;6813;60.352;15.746;2023-05-21T11:14:40;24.40;51.40
13482;DHT22;6813;60.352;15.746;2023-05-21T11:17:39;24.60;48.70
13482;DHT22;6813;60.352;15.746;2023-05-21T11:20:15;24.30;45.60
13482;DHT22;6813;60.352;15.746;2023-05-21T11:22:41;24.20;48.10
13482;DHT22;6813;60.352;15.746;2023-05-21T11:25:07;24.20;45.50
13482;DHT22;6813;60.352;15.746;2023-05-21T11:27:37;24.30;48.90
13482;DHT22;6813;60.352;15.746;2023-05-21T11:30:04;24.60;47.90
13482;DHT22;6813;60.352;15.746;2023-05-21T11:32:31;24.50;47.80
13482;DHT22;6813;60.352;15.746;2023-05-21T11:34:59;24.80;49.10
13482;DHT22;6813;60.352;15.746;2023-05-21T11:37:27;25.00;50.60
13482;DHT22;6813;60.352;15.746;2023-05-21T11:39:56;25.20;48.90
13482;DHT22;6813;60.352;15.746;2023-05-21T11:42:30;25.30;48.50
13482;DHT22;6813;60.352;15.746;2023-05-21T11:44:57;25.40;48.10
13482;DHT22;6813;60.352;15.746;2023-05-21T11:47:24;25.60;48.40
13482;DHT22;6813;60.352;15.746;2023-05-21T11:49:54;25.50;49.40
13482;DHT22;6813;60.352;15.746;2023-05-21T11:52:20;25.70;49.80
13482;DHT22;6813;60.352;15.746;2023-05-21T11:54:47;25.40;47.70
13482;DHT22;6813;60.352;15.746;2023-05-21T11:57:15;25.40;48.90
13482;DHT22;6813;60.352;15.746;2023-05-21T11:59:43;25.40;49.80
13482;DHT22;6813;60.352;15.746;2023-05-21T12:02:13;25.50;50.80
13482;DHT22;6813;60.352;15.746;2023-05-21T12:04:41;25.40;49.70
13482;DHT22;6813;60.352;15.746;2023-05-21T12:07:08;25.10;53.10
13482;DHT22;6813;60.352;15.746;2023-05-21T12:09:50;25.20;51.80
13482;DHT22;6813;60.352;15.746;2023-05-21T12:12:17;25.30;53.20
13482;DHT22;6813;60.352;15.746;2023-05-21T12:14:50;24.70;49.20
13482;DHT22;6813;60.352;15.746;2023-05-21T12:17:21;24.10;52.50
13482;DHT22;6813;60.352;15.746;2023-05-21T12:19:54;24.30;52.70
13482;DHT22;6813;60.352;15.746;2023-05-21T12:22:22;24.40;51.60
13482;DHT22;6813;60.352;15.746;2023-05-21T12:24:49;24.50;50.60
13482;DHT22;6813;60.352;15.746;2023-05-21T12:27:15;24.40;49.10
13482;DHT22;6813;60.352;15.746;2023-05-21T12:29:44;24.40;50.90
13482;DHT22;6813;60.352;15.746;2023-05-21T12:32:12;24.50;46.90
13482;DHT22;6813;60.352;15.746;2023-05-21T12:39:43;23.40;46.60
13482;DHT22;6813;60.352;15.746;2023-05-21T12:42:10;23.50;49.70
13482;DHT22;6813;60.352;15.746;2023-05-21T12:44:38;23.70;46.60
13482;DHT22;6813;60.352;15.746;2023-05-21T12:47:04;24.00;49.00
13482;DHT22;6813;60.352;15.746;2023-05-21T12:52:07;24.10;45.30
13482;DHT22;6813;60.352;15.746;2023-05-21T12:54:34;23.60;48.20
13482;DHT22;6813;60.352;15.746;2023-05-21T12:57:15;23.70;50.00
13482;DHT22;6813;60.352;15.746;2023-05-21T12:59:51;23.90;49.70
13482;DHT22;6813;60.352;15.746;2023-05-21T13:05:04;23.60;46.80
13482;DHT22;6813;60.352;15.746;2023-05-21T13:07:32;23.50;47.20
13482;DHT22;6813;60.352;15.746;2023-05-21T13:09:59;23.30;46.50
13482;DHT22;6813;60.352;15.746;2023-05-21T13:12:27;23.50;50.90
13482;DHT22;6813;60.352;15.746;2023-05-21T13:14:55;23.50;50.40
13482;DHT22;6813;60.352;15.746;2023-05-21T13:17:22;23.70;50.20
13482;DHT22;6813;60.352;15.746;2023-05-21T13:22:34;23.70;50.20
13482;DHT22;6813;60.352;15.746;2023-05-21T13:25:03;23.90;48.50
13482;DHT22;6813;60.352;15.746;2023-05-21T13:27:29;24.10;50.70
13482;DHT22;6813;60.352;15.746;2023-05-21T13:29:55;24.10;51.40
13482;DHT22;6813;60.352;15.746;2023-05-21T13:32:21;24.20;52.10
13482;DHT22;6813;60.352;15.746;2023-05-21T13:34:47;24.20;50.70
13482;DHT22;6813;60.352;15.746;2023-05-21T13:37:13;24.30;51.40
13482;DHT22;6813;60.352;15.746;2023-05-21T13:39:39;24.20;53.40
13482;DHT22;6813;60.352;15.746;2023-05-21T13:42:04;24.30;52.70
13482;DHT22;6813;60.352;15.746;2023-05-21T13:44:31;24.20;51.80
13482;DHT22;6813;60.352;15.746;2023-05-21T13:47:01;24.20;52.70
13482;DHT22;6813;60.352;15.746;2023-05-21T13:49:27;24.30;51.90
13482;DHT22;6813;60.352;15.746;2023-05-21T13:51:53;24.40;52.10
13482;DHT22;6813;60.352;15.746;2023-05-21T13:54:19;24.40;52.50
13482;DHT22;6813;60.352;15.746;2023-05-21T13:56:45;24.50;53.00
13482;DHT22;6813;60.352;15.746;2023-05-21T13:59:11;24.60;51.80
13482;DHT22;6813;60.352;15.746;2023-05-21T14:01:37;24.50;48.90
13482;DHT22;6813;60.352;15.746;2023-05-21T14:04:02;24.20;51.20
13482;DHT22;6813;60.352;15.746;2023-05-21T14:06:29;24.30;51.10
13482;DHT22;6813;60.352;15.746;2023-05-21T14:08:57;24.30;50.90
13482;DHT22;6813;60.352;15.746;2023-05-21T14:11:23;24.30;51.80
13482;DHT22;6813;60.352;15.746;2023-05-21T14:13:49;24.40;52.70
13482;DHT22;6813;60.352;15.746;2023-05-21T14:16:14;24.50;52.20
13482;DHT22;6813;60.352;15.746;2023-05-21T14:18:40;24.50;49.50
13482;DHT22;6813;60.352;15.746;2023-05-21T14:21:06;24.60;51.80
13482;DHT22;6813;60.352;15.746;2023-05-21T14:23:31;24.70;52.30
13482;DHT22;6813;60.352;15.746;2023-05-21T14:25:57;24.80;51.30
13482;DHT22;6813;60.352;15.746;2023-05-21T14:28:23;24.60;47.30
13482;DHT22;6813;60.352;15.746;2023-05-21T14:30:48;24.40;50.00
13482;DHT22;6813;60.352;15.746;2023-05-21T14:33:15;24.60;49.30
13482;DHT22;6813;60.352;15.746;2023-05-21T14:35:41;24.50;50.10
13482;DHT22;6813;60.352;15.746;2023-05-21T14:38:09;24.40;48.10
13482;DHT22;6813;60.352;15.746;2023-05-21T14:40:34;24.30;50.00
13482;DHT22;6813;60.352;15.746;2023-05-21T14:43:01;24.30;49.20
13482;DHT22;6813;60.352;15.746;2023-05-21T14:45:27;24.30;51.70
13482;DHT22;6813;60.352;15.746;2023-05-21T14:47:52;24.20;50.80
13482;DHT22;6813;60.352;15.746;2023-05-21T14:50:19;24.20;49.30
13482;DHT22;6813;60.352;15.746;2023-05-21T14:52:45;24.30;52.20
13482;DHT22;6813;60.352;15.746;2023-05-21T14:55:11;24.40;51.60
13482;DHT22;6813;60.352;15.746;2023-05-21T14:57:38;24.40;52.10
13482;DHT22;6813;60.352;15.746;2023-05-21T15:00:04;24.40;50.10
13482;DHT22;6813;60.352;15.746;2023-05-21T15:02:30;24.40;51.90
13482;DHT22;6813;60.352;15.746;2023-05-21T15:04:56;24.40;49.60
13482;DHT22;6813;60.352;15.746;2023-05-21T15:07:22;24.40;49.20
13482;DHT22;6813;60.352;15.746;2023-05-21T15:09:48;24.40;51.90
13482;DHT22;6813;60.352;15.746;2023-05-21T15:12:13;24.50;52.50
13482;DHT22;6813;60.352;15.746;2023-05-21T15:14:39;24.50;50.90
13482;DHT22;6813;60.352;15.746;2023-05-21T15:17:05;24.50;48.50
13482;DHT22;6813;60.352;15.746;2023-05-21T15:19:31;24.60;48.20
13482;DHT22;6813;60.352;15.746;2023-05-21T15:21:56;24.50;47.60
13482;DHT22;6813;60.352;15.746;2023-05-21T15:24:22;24.60;48.10
13482;DHT22;6813;60.352;15.746;2023-05-21T15:26:48;24.40;47.00
13482;DHT22;6813;60.352;15.746;2023-05-21T15:29:14;24.20;47.30
13482;DHT22;6813;60.352;15.746;2023-05-21T15:31:41;24.20;46.90
13482;DHT22;6813;60.352;15.746;2023-05-21T15:34:06;24.20;49.30
13482;DHT22;6813;60.352;15.746;2023-05-21T15:36:32;24.20;47.80
13482;DHT22;6813;60.352;15.746;2023-05-21T15:38:58;24.20;49.90
13482;DHT22;6813;60.352;15.746;2023-05-21T15:41:27;24.20;49.00
13482;DHT22;6813;60.352;15.746;2023-05-21T15:43:53;24.30;49.60
13482;DHT22;6813;60.352;15.746;2023-05-21T15:46:19;24.40;50.40
13482;DHT22;6813;60.352;15.746;2023-05-21T15:48:45;24.30;50.20
13482;DHT22;6813;60.352;15.746;2023-05-21T15:51:11;24.20;49.90
13482;DHT22;6813;60.352;15.746;2023-05-21T15:53:36;24.20;49.10
13482;DHT22;6813;60.352;15.746;2023-05-21T15:56:02;24.00;49.80